Tuesday, October 15, 2019, 4:05 AM EDT
Back to Local

KAFN, Jaffrey Muni-silver Ranch

Location: Jaffrey, NH, United States Lat: 42.8
Local Time: 4:05 AM EDT ( 8:05 GMT) Lon: -72
Time Zone: US/Eastern Elev: 1040 ft

Show me the last for .
Show Decoded

2019-10-15 03:52 METAR KAFN 150752Z AUTO 26004KT 10SM CLR 08/02 A3006 RMK AO2 SLP184 T00830022 =
2019-10-15 02:52 METAR KAFN 150652Z AUTO 00000KT 10SM CLR 06/03 A3005 RMK AO2 SLP182 T00560033 =
2019-10-15 01:52 METAR KAFN 150552Z AUTO 00000KT 10SM CLR 09/03 A3004 RMK AO2 SLP177 T00890028
                 10144 20089 53013 =
2019-10-15 00:52 METAR KAFN 150452Z AUTO 00000KT 10SM OVC070 11/03 A3002 RMK AO2 SLP171 T01110028
                 401940011 =
2019-10-14 23:52 METAR KAFN 150352Z AUTO 00000KT 10SM SCT070 12/03 A3001 RMK AO2 SLP168 T01220033
                 =
2019-10-14 22:52 METAR KAFN 150252Z AUTO VRB03KT 10SM OVC060 14/03 A3000 RMK AO2 SLP164 T01390028
                 51022 =
2019-10-14 21:52 METAR KAFN 150152Z AUTO VRB04KT 10SM OVC060 14/06 A2999 RMK AO2 SLP161 T01440061
                 =
2019-10-14 20:52 METAR KAFN 150052Z AUTO 00000KT 10SM FEW070 09/08 A2996 RMK AO2 SLP156 T00940078
                 =
2019-10-14 19:52 METAR KAFN 142352Z AUTO 00000KT 10SM CLR 10/08 A2993 RMK AO2 SLP148 T01000083
                 10194 20100 52016 =
2019-10-14 18:52 METAR KAFN 142252Z AUTO 00000KT 10SM CLR 12/09 A2991 RMK AO2 SLP140 T01220094 =
2019-10-14 17:52 METAR KAFN 142152Z AUTO 19003KT 10SM CLR 16/09 A2990 RMK AO2 SLP134 T01610094 =
2019-10-14 16:52 METAR KAFN 142052Z AUTO 20006KT 10SM CLR 18/08 A2988 RMK AO2 SLP127 T01830078
                 56009 =
2019-10-14 15:52 METAR KAFN 141952Z AUTO 21007KT 10SM CLR 19/07 A2988 RMK AO2 SLP126 T01890072 =
2019-10-14 14:52 METAR KAFN 141852Z AUTO 18010KT 10SM CLR 19/08 A2989 RMK AO2 SLP127 T01890083 =
2019-10-14 13:52 METAR KAFN 141752Z AUTO 20007KT 10SM CLR 18/09 A2991 RMK AO2 SLP136 T01830094
                 10183 20017 58024 =
2019-10-14 12:52 METAR KAFN 141652Z AUTO 22005KT 10SM FEW021 16/10 A2993 RMK AO2 SLP144 T01610100
                 =
2019-10-14 11:52 METAR KAFN 141552Z AUTO 22007KT 180V260 10SM FEW042 15/10 A2997 RMK AO2 SLP156
                 T01500100 =
2019-10-14 10:52 METAR KAFN 141452Z AUTO 19006KT 10SM CLR 14/09 A2998 RMK AO2 SLP161 T01390089
                 58007 =
2019-10-14 09:52 METAR KAFN 141352Z AUTO 19004KT 10SM CLR 12/07 A2999 RMK AO2 SLP164 T01220072 =
2019-10-14 08:52 METAR KAFN 141252Z AUTO 00000KT 10SM CLR 06/04 A3000 RMK AO2 SLP169 T00610044 =
2019-10-14 07:52 METAR KAFN 141152Z AUTO 00000KT 10SM CLR 02/01 A3000 RMK AO2 SLP172 I6000
                 T00170006 10033 20011 53008 =
2019-10-14 06:52 METAR KAFN 141052Z AUTO 00000KT 10SM CLR 02/00 A2999 RMK AO2 SLP168 T00170000 =
2019-10-14 05:52 METAR KAFN 140952Z AUTO 00000KT 10SM CLR 02/01 A2998 RMK AO2 SLP163 I1000
                 T00170006 =
2019-10-14 04:52 METAR KAFN 140852Z AUTO 00000KT 10SM CLR 02/01 A2998 RMK AO2 SLP161 T00220011
                 56015 =

Support USWX by starting your Amazon purchase here.